createdAt,value
2018-03-29T00:02:11.147Z,7.60
2018-03-29T00:04:38.707Z,7.60
2018-03-29T00:07:06.395Z,7.50
2018-03-29T00:09:34.090Z,7.40
2018-03-29T00:12:01.643Z,7.50
2018-03-29T00:14:29.416Z,7.40
2018-03-29T00:16:57.910Z,7.40
2018-03-29T00:19:26.440Z,7.40
2018-03-29T00:21:54.015Z,7.40
2018-03-29T00:24:21.694Z,7.30
2018-03-29T00:26:49.257Z,7.30
2018-03-29T00:29:17.624Z,7.20
2018-03-29T00:31:45.195Z,7.20
2018-03-29T00:34:12.870Z,7.20
2018-03-29T00:36:41.236Z,7.20
2018-03-29T00:39:08.868Z,7.20
2018-03-29T00:41:36.435Z,7.20
2018-03-29T00:44:04.058Z,7.20
2018-03-29T00:46:31.795Z,7.20
2018-03-29T00:49:00.200Z,7.20
2018-03-29T00:51:27.916Z,7.20
2018-03-29T00:53:55.463Z,7.30
2018-03-29T00:56:23.087Z,7.20
2018-03-29T00:58:50.742Z,7.30
2018-03-29T01:01:18.359Z,7.30
2018-03-29T01:03:46.018Z,7.20
2018-03-29T01:06:13.616Z,7.20
2018-03-29T01:08:41.180Z,7.10
2018-03-29T01:11:08.790Z,7.10
2018-03-29T01:13:36.348Z,7.10
2018-03-29T01:16:03.910Z,7.00
2018-03-29T01:18:31.490Z,7.00
2018-03-29T01:20:59.890Z,6.90
2018-03-29T01:23:27.474Z,6.90
2018-03-29T01:25:56.170Z,6.70
2018-03-29T01:28:23.751Z,6.70
2018-03-29T01:30:51.302Z,6.70
2018-03-29T01:33:18.915Z,6.70
2018-03-29T01:35:46.476Z,6.70
2018-03-29T01:38:14.076Z,6.60
2018-03-29T01:40:41.654Z,6.70
2018-03-29T01:43:10.004Z,6.60
2018-03-29T01:45:37.594Z,6.60
2018-03-29T01:48:06.103Z,6.50
2018-03-29T01:50:33.699Z,6.50
2018-03-29T01:53:01.268Z,6.50
2018-03-29T01:55:28.850Z,6.50
2018-03-29T01:57:57.287Z,6.50
2018-03-29T02:00:24.878Z,6.50
2018-03-29T02:02:53.390Z,6.60
2018-03-29T02:05:21.061Z,6.60
2018-03-29T02:07:48.658Z,6.50
2018-03-29T02:10:16.230Z,6.50
2018-03-29T02:12:43.832Z,6.40
2018-03-29T02:15:11.394Z,6.30
2018-03-29T02:17:38.987Z,6.30
2018-03-29T02:20:06.559Z,6.20
2018-03-29T02:22:34.931Z,6.20
2018-03-29T02:25:02.499Z,6.20
2018-03-29T02:27:30.199Z,6.20
2018-03-29T02:29:58.743Z,6.10
2018-03-29T02:32:26.380Z,6.10
2018-03-29T02:34:53.963Z,6.20
2018-03-29T02:37:21.648Z,6.10
2018-03-29T02:39:49.230Z,6.00
2018-03-29T02:42:16.788Z,6.00
2018-03-29T02:44:44.379Z,6.00
2018-03-29T02:47:11.941Z,6.00
2018-03-29T02:49:39.531Z,6.00
2018-03-29T02:52:07.925Z,6.00
2018-03-29T02:54:35.499Z,6.00
2018-03-29T02:57:03.095Z,6.00
2018-03-29T02:59:30.658Z,5.90
2018-03-29T03:01:58.258Z,5.90
2018-03-29T03:04:25.943Z,5.90
2018-03-29T03:06:53.499Z,5.90
2018-03-29T03:09:21.052Z,5.90
2018-03-29T03:11:48.650Z,5.90
2018-03-29T03:14:16.223Z,5.80
2018-03-29T03:16:43.811Z,5.90
2018-03-29T03:19:11.384Z,5.80
2018-03-29T03:21:38.963Z,5.80
2018-03-29T03:24:06.526Z,5.80
2018-03-29T03:26:34.111Z,5.80
2018-03-29T03:29:01.660Z,5.90
2018-03-29T03:31:29.248Z,5.80
2018-03-29T03:33:57.643Z,5.90
2018-03-29T03:36:25.343Z,5.90
2018-03-29T03:38:52.935Z,5.90
2018-03-29T03:41:20.519Z,5.90
2018-03-29T03:43:48.118Z,5.90
2018-03-29T03:46:15.709Z,5.90
2018-03-29T03:48:43.467Z,5.80
2018-03-29T03:51:11.064Z,5.80
2018-03-29T03:53:38.665Z,5.80
2018-03-29T03:56:06.224Z,5.90
2018-03-29T03:58:33.807Z,5.90
2018-03-29T04:01:02.190Z,5.90
2018-03-29T04:03:29.742Z,5.90
2018-03-29T04:05:57.302Z,5.90
2018-03-29T04:08:24.915Z,5.90
2018-03-29T04:10:52.518Z,5.90
2018-03-29T04:13:20.078Z,5.80
2018-03-29T04:15:47.682Z,5.60
2018-03-29T04:18:15.239Z,5.60
2018-03-29T04:20:42.826Z,5.70
2018-03-29T04:23:10.415Z,5.80
2018-03-29T04:25:38.054Z,5.80
2018-03-29T04:28:05.614Z,5.90
2018-03-29T04:30:34.674Z,5.70
2018-03-29T04:33:02.333Z,5.70
2018-03-29T04:35:30.765Z,5.80
2018-03-29T04:37:58.398Z,5.80
2018-03-29T04:40:25.953Z,5.60
2018-03-29T04:42:53.545Z,5.70
2018-03-29T04:45:21.103Z,5.70
2018-03-29T04:47:48.833Z,5.70
2018-03-29T04:50:16.403Z,5.70
2018-03-29T04:52:44.003Z,5.70
2018-03-29T04:55:11.595Z,5.60
2018-03-29T04:57:39.359Z,5.60
2018-03-29T05:00:07.058Z,5.60
2018-03-29T05:02:34.618Z,5.60
2018-03-29T05:05:02.230Z,5.70
2018-03-29T05:07:29.808Z,5.70
2018-03-29T05:09:57.502Z,5.60
2018-03-29T05:12:25.844Z,5.60
2018-03-29T05:14:53.406Z,5.60
2018-03-29T05:17:20.994Z,5.50
2018-03-29T05:19:48.554Z,5.50
2018-03-29T05:22:16.946Z,5.50
2018-03-29T05:24:45.258Z,5.50
2018-03-29T05:27:18.426Z,5.50
2018-03-29T05:29:45.990Z,5.50
2018-03-29T05:32:13.578Z,5.50
2018-03-29T05:34:42.389Z,5.40
2018-03-29T05:37:10.012Z,5.40
2018-03-29T05:39:37.590Z,5.40
2018-03-29T05:42:05.196Z,5.50
2018-03-29T05:44:33.534Z,5.30
2018-03-29T05:47:01.226Z,5.30
2018-03-29T05:49:29.551Z,5.30
2018-03-29T05:51:57.116Z,5.30
2018-03-29T05:54:24.714Z,5.40
2018-03-29T05:56:53.055Z,5.40
2018-03-29T05:59:20.755Z,5.40
2018-03-29T06:01:49.150Z,5.50
2018-03-29T06:04:16.743Z,5.50
2018-03-29T06:06:44.326Z,5.60
2018-03-29T06:09:12.010Z,5.70
2018-03-29T06:11:40.422Z,6.00
2018-03-29T06:14:08.015Z,5.90
2018-03-29T06:16:41.255Z,6.40
2018-03-29T06:19:08.866Z,6.90
2018-03-29T06:21:36.412Z,7.30
2018-03-29T06:24:03.968Z,7.10
2018-03-29T06:26:31.559Z,7.90
2018-03-29T06:28:59.218Z,8.80
2018-03-29T06:31:26.855Z,9.80
2018-03-29T06:33:54.421Z,9.70
2018-03-29T06:36:22.056Z,9.00
2018-03-29T06:38:50.102Z,8.50
2018-03-29T06:41:17.710Z,9.10
2018-03-29T06:43:45.283Z,8.80
2018-03-29T06:46:12.884Z,8.90
2018-03-29T06:48:40.470Z,9.30
2018-03-29T06:51:08.031Z,9.40
2018-03-29T06:53:35.800Z,10.60
2018-03-29T06:56:03.367Z,10.00
2018-03-29T06:58:31.211Z,9.50
2018-03-29T07:00:58.824Z,9.00
2018-03-29T07:03:26.486Z,8.50
2018-03-29T07:05:54.897Z,9.00
2018-03-29T07:08:22.648Z,9.00
2018-03-29T07:10:50.336Z,10.60
2018-03-29T07:13:17.950Z,10.30
2018-03-29T07:15:46.290Z,10.40
2018-03-29T07:18:13.843Z,10.30
2018-03-29T07:20:41.462Z,10.80
2018-03-29T07:23:09.031Z,10.60
2018-03-29T07:25:36.634Z,10.70
2018-03-29T07:28:04.227Z,11.90
2018-03-29T07:30:32.629Z,11.60
2018-03-29T07:33:01.076Z,11.70
2018-03-29T07:35:29.612Z,11.40
2018-03-29T07:37:57.385Z,11.40
2018-03-29T07:40:24.995Z,11.40
2018-03-29T07:42:52.634Z,11.80
2018-03-29T07:45:21.115Z,10.20
2018-03-29T07:47:49.443Z,9.10
2018-03-29T07:50:17.176Z,9.00
2018-03-29T07:52:44.835Z,9.10
2018-03-29T07:55:12.490Z,8.80
2018-03-29T07:57:40.862Z,8.80
2018-03-29T08:00:09.187Z,9.00
2018-03-29T08:02:36.771Z,9.00
2018-03-29T08:05:04.338Z,9.70
2018-03-29T08:07:32.157Z,10.70
2018-03-29T08:09:59.746Z,9.10
2018-03-29T08:12:27.343Z,8.70
2018-03-29T08:14:54.935Z,9.40
2018-03-29T08:17:22.526Z,9.40
2018-03-29T08:19:50.112Z,9.80
2018-03-29T08:22:18.458Z,10.90
2018-03-29T08:24:46.066Z,10.80
2018-03-29T08:27:13.646Z,11.10
2018-03-29T08:29:41.230Z,11.50
2018-03-29T08:32:08.886Z,11.60
2018-03-29T08:34:36.495Z,11.40
2018-03-29T08:37:04.062Z,11.10
2018-03-29T08:39:31.678Z,10.20
2018-03-29T08:41:59.235Z,11.60
2018-03-29T08:44:26.815Z,12.40
2018-03-29T08:46:55.188Z,10.70
2018-03-29T08:49:23.525Z,9.80
2018-03-29T08:51:51.122Z,9.80
2018-03-29T08:54:24.504Z,9.00
2018-03-29T08:56:52.101Z,8.80
2018-03-29T08:59:19.667Z,10.30
2018-03-29T09:01:47.291Z,9.20
2018-03-29T09:04:14.877Z,9.00
2018-03-29T09:06:42.486Z,9.70
2018-03-29T09:09:10.053Z,10.60
2018-03-29T09:11:37.637Z,10.70
2018-03-29T09:14:05.231Z,11.10
2018-03-29T09:16:32.783Z,11.60
2018-03-29T09:19:00.595Z,12.20
2018-03-29T09:21:28.218Z,13.90
2018-03-29T09:23:55.931Z,13.80
2018-03-29T09:26:23.515Z,14.40
2018-03-29T09:28:51.900Z,11.60
2018-03-29T09:31:19.466Z,11.60
2018-03-29T09:33:47.075Z,10.40
2018-03-29T09:36:14.723Z,10.30
2018-03-29T09:38:42.449Z,12.30
2018-03-29T09:41:10.011Z,13.80
2018-03-29T09:43:37.587Z,12.60
2018-03-29T09:46:05.187Z,12.80
2018-03-29T09:48:32.751Z,12.10
2018-03-29T09:51:01.114Z,14.10
2018-03-29T09:53:28.679Z,14.10
2018-03-29T09:55:56.271Z,15.00
2018-03-29T09:58:24.059Z,15.10
2018-03-29T10:00:51.686Z,15.90
2018-03-29T10:03:24.152Z,15.00
2018-03-29T10:05:52.655Z,12.30
2018-03-29T10:08:20.211Z,12.30
2018-03-29T10:10:47.854Z,12.30
2018-03-29T10:13:16.279Z,13.10
2018-03-29T10:15:44.071Z,13.10
2018-03-29T10:18:11.630Z,12.90
2018-03-29T10:20:39.259Z,12.40
2018-03-29T10:23:06.818Z,14.60
2018-03-29T10:25:34.422Z,14.90
2018-03-29T10:28:02.795Z,15.30
2018-03-29T10:30:31.254Z,14.90
2018-03-29T10:32:58.946Z,14.80
2018-03-29T10:35:27.323Z,13.20
2018-03-29T10:37:55.672Z,12.20
2018-03-29T10:40:23.338Z,12.10
2018-03-29T10:42:50.922Z,13.30
2018-03-29T10:45:19.243Z,13.60
2018-03-29T10:47:47.139Z,13.50
2018-03-29T10:50:14.729Z,14.10
2018-03-29T10:52:42.427Z,15.60
2018-03-29T10:55:10.123Z,15.60
2018-03-29T10:57:37.892Z,15.30
2018-03-29T11:00:05.451Z,17.10
2018-03-29T11:02:33.800Z,17.40
2018-03-29T11:05:01.396Z,17.40
2018-03-29T11:07:29.818Z,16.20
2018-03-29T11:09:57.416Z,16.20
2018-03-29T11:12:24.975Z,14.30
2018-03-29T11:14:53.354Z,12.90
2018-03-29T11:17:21.702Z,12.50
2018-03-29T11:19:49.296Z,12.50
2018-03-29T11:22:17.747Z,11.40
2018-03-29T11:24:45.311Z,11.50
2018-03-29T11:27:12.899Z,11.60
2018-03-29T11:29:41.244Z,10.60
2018-03-29T11:32:08.859Z,10.60
2018-03-29T11:34:36.437Z,10.70
2018-03-29T11:37:04.032Z,11.50
2018-03-29T11:39:31.632Z,11.20
2018-03-29T11:41:59.262Z,10.60
2018-03-29T11:44:26.831Z,10.40
2018-03-29T11:46:55.198Z,10.30
2018-03-29T11:49:22.850Z,10.20
2018-03-29T11:51:50.424Z,10.20
2018-03-29T11:54:18.874Z,11.40
2018-03-29T11:56:46.550Z,11.40
2018-03-29T11:59:14.231Z,11.50
2018-03-29T12:01:42.567Z,11.20
2018-03-29T12:04:10.202Z,11.10
2018-03-29T12:06:37.851Z,11.10
2018-03-29T12:09:05.523Z,11.20
2018-03-29T12:11:33.078Z,11.30
2018-03-29T12:14:00.701Z,11.30
2018-03-29T12:16:29.111Z,10.40
2018-03-29T12:18:56.793Z,10.40
2018-03-29T12:21:24.368Z,10.20
2018-03-29T12:23:51.950Z,10.20
2018-03-29T12:26:20.419Z,10.50
2018-03-29T12:28:47.995Z,10.50
2018-03-29T12:31:16.481Z,10.10
2018-03-29T12:33:44.037Z,10.10
2018-03-29T12:36:12.419Z,10.00
2018-03-29T12:38:40.755Z,10.00
2018-03-29T12:41:08.339Z,10.00
2018-03-29T12:43:36.699Z,10.40
2018-03-29T12:46:04.426Z,10.40
2018-03-29T12:48:32.142Z,10.20
2018-03-29T12:51:00.528Z,9.90
2018-03-29T12:53:28.090Z,9.90
2018-03-29T12:55:56.557Z,10.20
2018-03-29T12:58:24.147Z,10.20
2018-03-29T13:00:51.735Z,10.10
2018-03-29T13:03:19.338Z,10.00
2018-03-29T13:05:47.696Z,9.90
2018-03-29T13:08:15.299Z,9.90
2018-03-29T13:10:42.875Z,10.10
2018-03-29T13:13:10.462Z,10.10
2018-03-29T13:15:38.024Z,10.20
2018-03-29T13:18:05.644Z,10.30
2018-03-29T13:20:33.247Z,10.90
2018-03-29T13:23:01.595Z,10.90
2018-03-29T13:25:29.169Z,10.90
2018-03-29T13:27:56.850Z,10.80
2018-03-29T13:30:24.419Z,10.80
2018-03-29T13:32:52.826Z,10.70
2018-03-29T13:35:20.377Z,10.70
2018-03-29T13:37:48.025Z,10.70
2018-03-29T13:40:16.483Z,10.30
2018-03-29T13:42:44.155Z,10.30
2018-03-29T13:45:12.515Z,10.50
2018-03-29T13:47:40.104Z,10.40
2018-03-29T13:50:08.559Z,10.50
2018-03-29T13:52:36.195Z,10.40
2018-03-29T13:55:03.824Z,10.40
2018-03-29T13:57:31.388Z,10.00
2018-03-29T13:59:58.982Z,10.00
2018-03-29T14:02:26.567Z,10.00
2018-03-29T14:04:55.007Z,10.50
2018-03-29T14:07:22.686Z,10.50
2018-03-29T14:09:50.270Z,10.40
2018-03-29T14:12:18.619Z,10.10
2018-03-29T14:14:46.270Z,10.10
2018-03-29T14:17:13.806Z,10.40
2018-03-29T14:19:41.367Z,10.80
2018-03-29T14:22:09.075Z,10.70
2018-03-29T14:24:36.787Z,10.50
2018-03-29T14:27:04.390Z,10.60
2018-03-29T14:29:31.959Z,10.50
2018-03-29T14:32:00.439Z,10.10
2018-03-29T14:34:28.027Z,10.10
2018-03-29T14:36:55.600Z,10.00
2018-03-29T14:39:23.203Z,10.10
2018-03-29T14:41:50.817Z,10.00
2018-03-29T14:44:18.440Z,10.10
2018-03-29T14:46:46.007Z,10.10
2018-03-29T14:49:13.683Z,10.40
2018-03-29T14:51:41.361Z,10.60
2018-03-29T14:54:09.178Z,10.20
2018-03-29T14:56:37.635Z,10.90
2018-03-29T14:59:05.229Z,11.00
2018-03-29T15:01:33.592Z,10.50
2018-03-29T15:04:02.137Z,10.40
2018-03-29T15:06:29.794Z,10.30
2018-03-29T15:08:57.413Z,10.30
2018-03-29T15:11:25.862Z,10.30
2018-03-29T15:13:53.487Z,10.20
2018-03-29T15:16:21.075Z,10.50
2018-03-29T15:18:48.715Z,10.40
2018-03-29T15:21:16.282Z,10.20
2018-03-29T15:23:43.893Z,10.20
2018-03-29T15:26:11.459Z,9.90
2018-03-29T15:28:39.027Z,10.10
2018-03-29T15:31:06.618Z,10.00
2018-03-29T15:33:34.191Z,10.30
2018-03-29T15:36:01.833Z,10.20
2018-03-29T15:38:29.394Z,10.20
2018-03-29T15:40:56.959Z,10.10
2018-03-29T15:43:24.559Z,10.10
2018-03-29T15:45:52.306Z,10.00
2018-03-29T15:48:20.664Z,10.00
2018-03-29T15:50:48.246Z,10.00
2018-03-29T15:53:16.599Z,9.80
2018-03-29T15:55:45.712Z,9.80
2018-03-29T15:58:14.059Z,9.80
2018-03-29T16:00:41.651Z,9.80
2018-03-29T16:03:10.127Z,9.80
2018-03-29T16:05:38.471Z,9.80
2018-03-29T16:08:06.059Z,9.80
2018-03-29T16:10:33.631Z,9.80
2018-03-29T16:13:02.015Z,9.90
2018-03-29T16:15:30.446Z,9.80
2018-03-29T16:17:58.016Z,9.80
2018-03-29T16:20:25.703Z,9.80
2018-03-29T16:22:54.039Z,9.90
2018-03-29T16:25:21.638Z,9.80
2018-03-29T16:27:49.964Z,9.70
2018-03-29T16:30:17.580Z,9.70
2018-03-29T16:32:46.051Z,9.70
2018-03-29T16:35:14.535Z,9.70
2018-03-29T16:37:42.863Z,9.60
2018-03-29T16:40:10.467Z,9.60
2018-03-29T16:42:38.794Z,9.60
2018-03-29T16:45:06.365Z,9.60
2018-03-29T16:47:33.963Z,9.60
2018-03-29T16:50:02.290Z,9.60
2018-03-29T16:52:29.951Z,9.60
2018-03-29T16:54:57.552Z,9.60
2018-03-29T16:57:25.966Z,9.60
2018-03-29T16:59:53.575Z,9.60
2018-03-29T17:02:21.276Z,9.50
2018-03-29T17:04:48.911Z,9.50
2018-03-29T17:07:17.443Z,9.40
2018-03-29T17:09:45.103Z,9.40
2018-03-29T17:12:12.838Z,9.40
2018-03-29T17:14:40.556Z,9.40
2018-03-29T17:17:08.175Z,9.40
2018-03-29T17:19:35.794Z,9.40
2018-03-29T17:22:03.356Z,9.50
2018-03-29T17:24:31.719Z,9.40
2018-03-29T17:26:59.295Z,9.40
2018-03-29T17:29:27.647Z,9.30
2018-03-29T17:31:55.215Z,9.30
2018-03-29T17:34:22.820Z,9.30
2018-03-29T17:36:50.504Z,9.20
2018-03-29T17:39:18.095Z,9.20
2018-03-29T17:41:46.449Z,8.90
2018-03-29T17:44:14.039Z,8.90
2018-03-29T17:46:42.410Z,8.80
2018-03-29T17:49:10.242Z,8.80
2018-03-29T17:51:37.822Z,8.70
2018-03-29T17:54:05.402Z,8.70
2018-03-29T17:56:33.935Z,8.50
2018-03-29T17:59:01.560Z,8.50
2018-03-29T18:01:29.131Z,8.60
2018-03-29T18:03:56.696Z,8.50
2018-03-29T18:06:24.310Z,8.50
2018-03-29T18:08:51.878Z,8.40
2018-03-29T18:11:20.288Z,8.20
2018-03-29T18:13:47.930Z,8.20
2018-03-29T18:16:16.293Z,8.20
2018-03-29T18:18:44.683Z,8.10
2018-03-29T18:21:13.210Z,8.00
2018-03-29T18:23:40.989Z,8.00
2018-03-29T18:26:08.596Z,8.10
2018-03-29T18:28:36.183Z,8.40
2018-03-29T18:31:03.749Z,8.50
2018-03-29T18:33:31.370Z,8.50
2018-03-29T18:35:58.944Z,8.50
2018-03-29T18:38:26.743Z,8.40
2018-03-29T18:40:54.344Z,8.30
2018-03-29T18:43:22.708Z,8.00
2018-03-29T18:45:51.079Z,8.00
2018-03-29T18:48:18.755Z,8.00
2018-03-29T18:50:47.176Z,7.80
2018-03-29T18:53:14.788Z,7.80
2018-03-29T18:55:43.115Z,7.90
2018-03-29T18:58:10.711Z,7.90
2018-03-29T19:00:39.075Z,7.90
2018-03-29T19:03:06.673Z,7.80
2018-03-29T19:05:34.283Z,7.70
2018-03-29T19:08:01.879Z,7.70
2018-03-29T19:10:30.291Z,7.60
2018-03-29T19:12:57.876Z,7.60
2018-03-29T19:15:25.513Z,7.60
2018-03-29T19:17:53.131Z,7.60
2018-03-29T19:20:21.668Z,7.50
2018-03-29T19:22:49.251Z,7.50
2018-03-29T19:25:16.871Z,7.40
2018-03-29T19:27:44.603Z,7.50
2018-03-29T19:30:12.962Z,7.20
2018-03-29T19:32:40.547Z,7.20
2018-03-29T19:35:08.887Z,7.30
2018-03-29T19:37:36.526Z,7.30
2018-03-29T19:40:04.082Z,7.30
2018-03-29T19:42:31.687Z,7.30
2018-03-29T19:45:00.063Z,7.20
2018-03-29T19:47:28.436Z,7.20
2018-03-29T19:49:56.003Z,7.20
2018-03-29T19:52:24.419Z,7.30
2018-03-29T19:54:52.008Z,7.30
2018-03-29T19:57:19.702Z,7.40
2018-03-29T19:59:48.071Z,7.30
2018-03-29T20:02:16.438Z,7.20
2018-03-29T20:04:44.030Z,7.20
2018-03-29T20:07:11.602Z,7.10
2018-03-29T20:09:39.216Z,7.00
2018-03-29T20:12:06.804Z,6.90
2018-03-29T20:14:34.409Z,6.90
2018-03-29T20:17:01.971Z,6.80
2018-03-29T20:19:29.588Z,6.90
2018-03-29T20:21:57.296Z,6.90
2018-03-29T20:24:24.920Z,7.00
2018-03-29T20:26:52.503Z,6.90
2018-03-29T20:29:20.106Z,6.90
2018-03-29T20:31:48.559Z,6.90
2018-03-29T20:34:16.142Z,6.90
2018-03-29T20:36:44.547Z,6.90
2018-03-29T20:39:12.198Z,6.80
2018-03-29T20:41:39.831Z,6.80
2018-03-29T20:44:08.196Z,6.80
2018-03-29T20:46:35.892Z,6.80
2018-03-29T20:49:04.233Z,6.90
2018-03-29T20:51:31.867Z,6.90
2018-03-29T20:53:59.563Z,6.90
2018-03-29T20:56:27.174Z,6.80
2018-03-29T20:58:54.739Z,6.80
2018-03-29T21:01:22.427Z,6.80
2018-03-29T21:03:50.023Z,6.80
2018-03-29T21:06:18.356Z,6.90
2018-03-29T21:08:46.085Z,6.90
2018-03-29T21:11:13.655Z,6.70
2018-03-29T21:13:41.248Z,6.50
2018-03-29T21:16:08.809Z,6.50
2018-03-29T21:18:36.406Z,6.40
2018-03-29T21:21:03.988Z,6.30
2018-03-29T21:23:31.579Z,6.30
2018-03-29T21:25:59.155Z,6.30
2018-03-29T21:28:26.756Z,6.20
2018-03-29T21:30:54.323Z,6.20
2018-03-29T21:33:21.913Z,6.10
2018-03-29T21:35:49.499Z,6.00
2018-03-29T21:38:17.092Z,6.00
2018-03-29T21:40:44.686Z,6.00
2018-03-29T21:43:12.259Z,5.90
2018-03-29T21:45:39.854Z,5.90
2018-03-29T21:48:07.493Z,5.80
2018-03-29T21:50:35.844Z,5.70
2018-03-29T21:53:03.462Z,5.70
2018-03-29T21:55:31.061Z,5.80
2018-03-29T21:57:58.684Z,5.70
2018-03-29T22:00:27.010Z,5.80
2018-03-29T22:02:54.571Z,5.70
2018-03-29T22:05:22.158Z,5.70
2018-03-29T22:07:49.753Z,5.70
2018-03-29T22:10:17.361Z,5.70
2018-03-29T22:12:45.732Z,5.50
2018-03-29T22:15:13.300Z,5.50
2018-03-29T22:17:41.691Z,5.80
2018-03-29T22:20:09.362Z,5.70
2018-03-29T22:22:37.019Z,5.80
2018-03-29T22:25:04.623Z,5.80
2018-03-29T22:27:32.238Z,5.70
2018-03-29T22:29:59.798Z,5.70
2018-03-29T22:32:27.402Z,5.70
2018-03-29T22:34:55.194Z,5.50
2018-03-29T22:37:23.528Z,6.00
2018-03-29T22:39:51.125Z,6.00
2018-03-29T22:42:18.707Z,6.00
2018-03-29T22:44:47.084Z,5.90
2018-03-29T22:47:14.667Z,5.90
2018-03-29T22:49:42.383Z,6.00
2018-03-29T22:52:10.789Z,6.10
2018-03-29T22:54:38.391Z,6.00
2018-03-29T22:57:06.207Z,6.10
2018-03-29T22:59:33.831Z,5.80
2018-03-29T23:02:01.426Z,5.70
2018-03-29T23:04:29.743Z,5.50
2018-03-29T23:06:57.480Z,5.40
2018-03-29T23:09:25.130Z,5.40
2018-03-29T23:11:52.775Z,5.50
2018-03-29T23:14:21.138Z,5.40
2018-03-29T23:16:48.771Z,5.40
2018-03-29T23:19:16.326Z,5.20
2018-03-29T23:21:43.919Z,5.30
2018-03-29T23:24:12.241Z,5.10
2018-03-29T23:26:39.979Z,5.00
2018-03-29T23:29:07.548Z,5.00
2018-03-29T23:31:35.141Z,5.00
2018-03-29T23:34:02.703Z,5.00
2018-03-29T23:36:30.280Z,5.10
2018-03-29T23:38:57.885Z,5.10
2018-03-29T23:41:25.583Z,5.10
2018-03-29T23:43:53.164Z,5.10
2018-03-29T23:46:20.775Z,4.90
2018-03-29T23:48:48.463Z,4.90
2018-03-29T23:51:16.032Z,4.80
2018-03-29T23:53:44.526Z,4.90
2018-03-29T23:56:13.022Z,4.90
2018-03-29T23:58:41.455Z,4.70
